createdAt,value
2019-02-07T00:00:59.390Z,1007.28
2019-02-07T00:01:59.474Z,1007.28
2019-02-07T00:02:59.289Z,1007.23
2019-02-07T00:03:59.298Z,1007.27
2019-02-07T00:04:59.212Z,1007.26
2019-02-07T00:05:59.223Z,1007.26
2019-02-07T00:06:59.194Z,1007.23
2019-02-07T00:07:59.206Z,1007.24
2019-02-07T00:08:59.153Z,1007.24
2019-02-07T00:09:59.140Z,1007.22
2019-02-07T00:10:59.155Z,1007.16
2019-02-07T00:11:59.129Z,1007.19
2019-02-07T00:12:59.118Z,1007.20
2019-02-07T00:13:59.095Z,1007.17
2019-02-07T00:14:59.080Z,1007.16
2019-02-07T00:15:59.057Z,1007.12
2019-02-07T00:16:59.049Z,1007.13
2019-02-07T00:17:59.058Z,1007.17
2019-02-07T00:18:59.028Z,1007.14
2019-02-07T00:19:58.992Z,1007.13
2019-02-07T00:20:58.991Z,1007.11
2019-02-07T00:21:58.995Z,1007.14
2019-02-07T00:22:58.955Z,1007.09
2019-02-07T00:23:58.941Z,1007.11
2019-02-07T00:24:58.966Z,1007.08
2019-02-07T00:25:58.948Z,1007.08
2019-02-07T00:26:58.918Z,1007.07
2019-02-07T00:27:58.914Z,1007.07
2019-02-07T00:28:58.892Z,1007.09
2019-02-07T00:29:58.854Z,1007.06
2019-02-07T00:30:58.854Z,1007.04
2019-02-07T00:31:58.845Z,1007.05
2019-02-07T00:32:58.853Z,1007.02
2019-02-07T00:33:58.805Z,1006.99
2019-02-07T00:34:58.808Z,1007.02
2019-02-07T00:35:58.801Z,1007.02
2019-02-07T00:36:58.790Z,1007.02
2019-02-07T00:37:58.759Z,1007.00
2019-02-07T00:38:58.747Z,1006.99
2019-02-07T00:39:58.721Z,1006.98
2019-02-07T00:40:58.722Z,1006.99
2019-02-07T00:41:58.710Z,1006.96
2019-02-07T00:42:58.689Z,1006.93
2019-02-07T00:43:58.673Z,1006.93
2019-02-07T00:44:58.657Z,1006.88
2019-02-07T00:45:58.663Z,1006.87
2019-02-07T00:46:58.639Z,1006.83
2019-02-07T00:47:58.652Z,1006.77
2019-02-07T00:48:58.582Z,1006.77
2019-02-07T00:49:58.597Z,1006.71
2019-02-07T00:50:58.579Z,1006.68
2019-02-07T00:51:58.537Z,1006.74
2019-02-07T00:52:58.525Z,1006.74
2019-02-07T00:53:58.515Z,1006.74
2019-02-07T00:54:58.510Z,1006.73
2019-02-07T00:55:58.510Z,1006.70
2019-02-07T00:56:58.469Z,1006.68
2019-02-07T00:58:07.152Z,1006.67
2019-02-07T01:00:02.943Z,1006.65
2019-02-07T01:01:02.942Z,1006.64
2019-02-07T01:02:02.892Z,1006.63
2019-02-07T01:03:02.886Z,1006.60
2019-02-07T01:04:02.894Z,1006.62
2019-02-07T01:05:02.842Z,1006.64
2019-02-07T01:06:02.834Z,1006.62
2019-02-07T01:07:02.850Z,1006.54
2019-02-07T01:08:02.824Z,1006.55
2019-02-07T01:09:02.807Z,1006.50
2019-02-07T01:10:02.803Z,1006.50
2019-02-07T01:11:02.884Z,1006.46
2019-02-07T01:12:02.758Z,1006.44
2019-02-07T01:13:02.874Z,1006.46
2019-02-07T01:14:02.752Z,1006.44
2019-02-07T01:15:02.753Z,1006.43
2019-02-07T01:16:02.728Z,1006.45
2019-02-07T01:17:02.677Z,1006.45
2019-02-07T01:18:02.658Z,1006.45
2019-02-07T01:19:02.649Z,1006.47
2019-02-07T01:20:02.657Z,1006.47
2019-02-07T01:21:02.615Z,1006.41
2019-02-07T01:22:02.632Z,1006.41
2019-02-07T01:23:02.593Z,1006.40
2019-02-07T01:24:02.600Z,1006.42
2019-02-07T01:25:02.633Z,1006.42
2019-02-07T01:26:02.561Z,1006.42
2019-02-07T01:27:02.569Z,1006.43
2019-02-07T01:28:02.551Z,1006.39
2019-02-07T01:29:02.517Z,1006.37
2019-02-07T01:30:02.493Z,1006.37
2019-02-07T01:31:02.497Z,1006.40
2019-02-07T01:32:02.464Z,1006.33
2019-02-07T01:33:02.448Z,1006.37
2019-02-07T01:34:02.463Z,1006.33
2019-02-07T01:35:02.419Z,1006.31
2019-02-07T01:36:02.408Z,1006.29
2019-02-07T01:37:02.447Z,1006.26
2019-02-07T01:38:02.380Z,1006.25
2019-02-07T01:39:02.357Z,1006.27
2019-02-07T01:40:02.350Z,1006.22
2019-02-07T01:41:02.397Z,1006.23
2019-02-07T01:42:02.402Z,1006.23
2019-02-07T01:43:02.329Z,1006.20
2019-02-07T01:44:02.296Z,1006.23
2019-02-07T01:45:12.587Z,1006.15
2019-02-07T01:46:02.272Z,1006.14
2019-02-07T01:47:02.279Z,1006.16
2019-02-07T01:48:02.255Z,1006.14
2019-02-07T01:49:02.356Z,1006.14
2019-02-07T01:50:02.257Z,1006.16
2019-02-07T01:51:02.201Z,1006.15
2019-02-07T01:52:02.189Z,1006.16
2019-02-07T01:53:02.190Z,1006.17
2019-02-07T01:54:02.176Z,1006.18
2019-02-07T01:55:02.147Z,1006.17
2019-02-07T01:56:02.151Z,1006.15
2019-02-07T01:57:02.144Z,1006.09
2019-02-07T01:58:02.144Z,1006.04
2019-02-07T01:59:02.106Z,1006.02
2019-02-07T02:00:02.106Z,1006.01
2019-02-07T02:01:02.127Z,1005.99
2019-02-07T02:02:02.152Z,1005.96
2019-02-07T02:03:02.083Z,1005.96
2019-02-07T02:04:02.047Z,1005.92
2019-02-07T02:05:02.022Z,1005.93
2019-02-07T02:06:01.997Z,1005.91
2019-02-07T02:07:01.978Z,1005.92
2019-02-07T02:08:01.983Z,1005.91
2019-02-07T02:09:01.973Z,1005.92
2019-02-07T02:10:01.949Z,1005.90
2019-02-07T02:11:01.908Z,1005.89
2019-02-07T02:12:01.914Z,1005.91
2019-02-07T02:13:01.905Z,1005.88
2019-02-07T02:14:01.902Z,1005.93
2019-02-07T02:15:01.927Z,1005.94
2019-02-07T02:16:02.002Z,1005.99
2019-02-07T02:17:01.825Z,1006.00
2019-02-07T02:18:01.929Z,1006.01
2019-02-07T02:19:01.833Z,1006.00
2019-02-07T02:20:01.798Z,1005.99
2019-02-07T02:21:01.854Z,1006.01
2019-02-07T02:22:01.798Z,1005.94
2019-02-07T02:23:01.775Z,1005.88
2019-02-07T02:24:01.734Z,1005.86
2019-02-07T02:25:01.733Z,1005.87
2019-02-07T02:26:01.728Z,1005.87
2019-02-07T02:27:01.695Z,1005.83
2019-02-07T02:28:01.762Z,1005.78
2019-02-07T02:29:01.655Z,1005.79
2019-02-07T02:30:01.705Z,1005.75
2019-02-07T02:31:01.630Z,1005.77
2019-02-07T02:32:01.615Z,1005.80
2019-02-07T02:33:01.637Z,1005.78
2019-02-07T02:34:01.612Z,1005.81
2019-02-07T02:35:01.599Z,1005.78
2019-02-07T02:36:01.576Z,1005.74
2019-02-07T02:37:01.565Z,1005.72
2019-02-07T02:38:01.533Z,1005.69
2019-02-07T02:39:01.534Z,1005.68
2019-02-07T02:40:01.519Z,1005.65
2019-02-07T02:41:01.502Z,1005.63
2019-02-07T02:42:01.712Z,1005.54
2019-02-07T02:43:01.533Z,1005.58
2019-02-07T02:44:01.529Z,1005.63
2019-02-07T02:45:01.462Z,1005.61
2019-02-07T02:46:01.534Z,1005.60
2019-02-07T02:47:01.422Z,1005.58
2019-02-07T02:48:01.397Z,1005.60
2019-02-07T02:49:01.388Z,1005.61
2019-02-07T02:50:01.395Z,1005.63
2019-02-07T02:51:01.379Z,1005.57
2019-02-07T02:52:01.355Z,1005.54
2019-02-07T02:53:01.362Z,1005.53
2019-02-07T02:54:01.308Z,1005.53
2019-02-07T02:55:01.320Z,1005.44
2019-02-07T02:56:01.296Z,1005.43
2019-02-07T02:57:01.299Z,1005.49
2019-02-07T03:13:38.371Z,1005.34
2019-02-07T03:14:38.306Z,1005.36
2019-02-07T03:15:49.125Z,1005.40
2019-02-07T03:16:38.229Z,1005.35
2019-02-07T03:17:38.202Z,1005.30
2019-02-07T03:18:38.203Z,1005.29
2019-02-07T03:19:38.188Z,1005.28
2019-02-07T03:20:38.186Z,1005.24
2019-02-07T03:21:38.134Z,1005.21
2019-02-07T03:22:38.125Z,1005.18
2019-02-07T03:23:38.124Z,1005.15
2019-02-07T03:24:38.124Z,1005.15
2019-02-07T03:25:38.063Z,1005.10
2019-02-07T03:26:38.052Z,1005.08
2019-02-07T03:27:38.043Z,1005.15
2019-02-07T03:28:38.027Z,1005.17
2019-02-07T03:29:38.011Z,1005.20
2019-02-07T03:30:38.048Z,1005.17
2019-02-07T03:31:37.983Z,1005.12
2019-02-07T03:32:38.016Z,1005.07
2019-02-07T03:33:37.960Z,1005.03
2019-02-07T03:34:37.949Z,1005.06
2019-02-07T03:35:37.918Z,1004.91
2019-02-07T03:36:37.931Z,1004.82
2019-02-07T03:37:37.906Z,1004.90
2019-02-07T03:38:37.891Z,1004.95
2019-02-07T03:39:37.871Z,1004.96
2019-02-07T03:40:37.847Z,1004.96
2019-02-07T03:41:37.851Z,1005.01
2019-02-07T03:42:37.955Z,1004.97
2019-02-07T03:43:37.867Z,1004.91
2019-02-07T03:44:37.847Z,1004.86
2019-02-07T03:45:37.784Z,1004.84
2019-02-07T03:46:37.770Z,1004.85
2019-02-07T03:47:37.769Z,1004.80
2019-02-07T03:48:37.763Z,1004.80
2019-02-07T03:49:37.734Z,1004.80
2019-02-07T03:50:37.725Z,1004.82
2019-02-07T03:51:37.731Z,1004.76
2019-02-07T03:52:37.713Z,1004.79
2019-02-07T03:53:37.719Z,1004.84
2019-02-07T03:54:37.670Z,1004.88
2019-02-07T03:55:37.681Z,1004.88
2019-02-07T03:56:37.636Z,1004.83
2019-02-07T03:57:37.640Z,1004.84
2019-02-07T03:58:37.612Z,1004.84
2019-02-07T03:59:37.596Z,1004.80
2019-02-07T04:00:37.587Z,1004.76
2019-02-07T04:01:37.610Z,1004.77
2019-02-07T04:02:40.499Z,1004.84
2019-02-07T04:03:37.575Z,1004.82
2019-02-07T04:04:37.559Z,1004.75
2019-02-07T04:05:37.577Z,1004.73
2019-02-07T04:06:37.503Z,1004.75
2019-02-07T04:07:37.505Z,1004.68
2019-02-07T04:08:37.486Z,1004.63
2019-02-07T04:09:37.494Z,1004.60
2019-02-07T04:10:37.503Z,1004.54
2019-02-07T04:11:37.436Z,1004.55
2019-02-07T04:12:37.443Z,1004.59
2019-02-07T04:13:37.442Z,1004.60
2019-02-07T04:14:37.514Z,1004.51
2019-02-07T04:15:37.381Z,1004.53
2019-02-07T04:16:37.365Z,1004.59
2019-02-07T04:17:37.357Z,1004.60
2019-02-07T04:18:37.367Z,1004.58
2019-02-07T04:19:37.460Z,1004.51
2019-02-07T04:20:37.329Z,1004.52
2019-02-07T04:21:37.338Z,1004.57
2019-02-07T04:22:37.300Z,1004.50
2019-02-07T04:23:37.319Z,1004.45
2019-02-07T04:24:37.309Z,1004.45
2019-02-07T04:25:37.275Z,1004.46
2019-02-07T04:26:37.277Z,1004.44
2019-02-07T04:27:37.229Z,1004.47
2019-02-07T04:28:37.230Z,1004.42
2019-02-07T04:29:37.201Z,1004.42
2019-02-07T04:30:37.185Z,1004.36
2019-02-07T04:31:37.170Z,1004.36
2019-02-07T04:32:37.192Z,1004.35
2019-02-07T04:33:37.168Z,1004.37
2019-02-07T04:34:37.129Z,1004.43
2019-02-07T04:35:37.117Z,1004.43
2019-02-07T04:36:37.113Z,1004.42
2019-02-07T04:37:37.094Z,1004.47
2019-02-07T04:38:37.092Z,1004.45
2019-02-07T04:39:37.079Z,1004.48
2019-02-07T04:40:37.070Z,1004.46
2019-02-07T04:41:37.038Z,1004.47
2019-02-07T04:42:37.041Z,1004.44
2019-02-07T04:43:37.030Z,1004.45
2019-02-07T04:44:37.022Z,1004.42
2019-02-07T04:45:36.977Z,1004.41
2019-02-07T04:46:36.969Z,1004.44
2019-02-07T04:47:36.977Z,1004.47
2019-02-07T04:48:36.969Z,1004.46
2019-02-07T04:49:37.008Z,1004.43
2019-02-07T04:50:36.915Z,1004.40
2019-02-07T04:51:36.911Z,1004.38
2019-02-07T04:52:36.903Z,1004.39
2019-02-07T04:53:36.903Z,1004.45
2019-02-07T04:54:36.870Z,1004.47
2019-02-07T04:55:36.901Z,1004.45
2019-02-07T04:56:36.834Z,1004.44
2019-02-07T04:57:36.843Z,1004.46
2019-02-07T04:58:36.826Z,1004.42
2019-02-07T04:59:36.855Z,1004.35
2019-02-07T05:00:36.802Z,1004.31
2019-02-07T05:01:36.770Z,1004.31
2019-02-07T05:02:36.758Z,1004.28
2019-02-07T05:03:36.779Z,1004.33
2019-02-07T05:04:36.763Z,1004.30
2019-02-07T05:05:36.717Z,1004.30
2019-02-07T05:06:36.703Z,1004.27
2019-02-07T05:07:36.689Z,1004.21
2019-02-07T05:08:36.693Z,1004.15
2019-02-07T05:09:36.697Z,1004.14
2019-02-07T05:10:36.709Z,1004.22
2019-02-07T05:11:36.663Z,1004.25
2019-02-07T05:12:36.627Z,1004.25
2019-02-07T05:13:36.617Z,1004.24
2019-02-07T05:14:36.628Z,1004.31
2019-02-07T05:15:36.610Z,1004.28
2019-02-07T05:16:39.674Z,1004.27
2019-02-07T05:17:36.561Z,1004.29
2019-02-07T05:18:36.551Z,1004.27
2019-02-07T05:19:36.602Z,1004.27
2019-02-07T05:20:36.559Z,1004.29
2019-02-07T05:21:36.552Z,1004.32
2019-02-07T05:22:36.494Z,1004.41
2019-02-07T05:23:36.486Z,1004.45
2019-02-07T05:24:36.514Z,1004.43
2019-02-07T05:25:36.479Z,1004.44
2019-02-07T05:26:36.445Z,1004.38
2019-02-07T05:27:36.501Z,1004.39
2019-02-07T05:28:36.431Z,1004.37
2019-02-07T05:29:36.429Z,1004.37
2019-02-07T05:30:36.421Z,1004.41
2019-02-07T05:31:36.438Z,1004.42
2019-02-07T05:32:36.568Z,1004.46
2019-02-07T05:33:36.376Z,1004.46
2019-02-07T05:34:36.371Z,1004.53
2019-02-07T05:35:36.367Z,1004.49
2019-02-07T05:36:36.316Z,1004.47
2019-02-07T05:37:36.291Z,1004.43
2019-02-07T05:38:36.315Z,1004.43
2019-02-07T05:39:36.297Z,1004.43
2019-02-07T05:40:36.280Z,1004.39
2019-02-07T05:41:36.286Z,1004.32
2019-02-07T05:42:36.256Z,1004.20
2019-02-07T05:43:36.298Z,1004.18
2019-02-07T05:44:36.234Z,1004.09
2019-02-07T05:45:36.221Z,1004.07
2019-02-07T05:46:36.243Z,1004.02
2019-02-07T05:47:36.175Z,1004.00
2019-02-07T05:48:36.189Z,1004.01
2019-02-07T05:49:36.302Z,1004.00
2019-02-07T05:50:36.156Z,1004.04
2019-02-07T05:51:36.161Z,1004.04
2019-02-07T05:52:36.104Z,1004.12
2019-02-07T05:53:36.110Z,1004.08
2019-02-07T05:54:36.110Z,1003.97
2019-02-07T05:55:36.111Z,1003.92
2019-02-07T05:56:36.097Z,1003.89
2019-02-07T05:57:36.083Z,1003.90
2019-02-07T05:58:36.037Z,1003.87
2019-02-07T05:59:36.023Z,1003.85
2019-02-07T06:00:36.031Z,1003.80
2019-02-07T06:01:36.140Z,1003.71
2019-02-07T06:02:36.035Z,1003.73
2019-02-07T06:03:35.972Z,1003.68
2019-02-07T06:04:35.956Z,1003.66
2019-02-07T06:05:36.168Z,1003.64
2019-02-07T06:06:35.957Z,1003.70
2019-02-07T06:07:35.910Z,1003.76
2019-02-07T06:08:35.896Z,1003.71
2019-02-07T06:09:35.878Z,1003.71
2019-02-07T06:10:35.875Z,1003.80
2019-02-07T06:11:35.859Z,1003.83
2019-02-07T06:12:35.862Z,1003.80
2019-02-07T06:13:35.825Z,1003.81
2019-02-07T06:14:35.835Z,1003.79
2019-02-07T06:15:35.803Z,1003.74
2019-02-07T06:16:35.868Z,1003.71
2019-02-07T06:17:35.778Z,1003.73
2019-02-07T06:18:35.788Z,1003.77
2019-02-07T06:19:35.774Z,1003.78
2019-02-07T06:20:35.731Z,1003.76
2019-02-07T06:21:35.755Z,1003.72
2019-02-07T06:22:35.789Z,1003.74
2019-02-07T06:23:35.723Z,1003.78
2019-02-07T06:24:35.713Z,1003.78
2019-02-07T06:25:35.673Z,1003.72
2019-02-07T06:26:35.697Z,1003.66
2019-02-07T06:27:35.682Z,1003.60
2019-02-07T06:28:35.649Z,1003.67
2019-02-07T06:29:35.679Z,1003.66
2019-02-07T06:30:35.610Z,1003.66
2019-02-07T06:31:35.628Z,1003.65
2019-02-07T06:32:35.594Z,1003.68
2019-02-07T06:33:35.635Z,1003.64
2019-02-07T06:34:35.565Z,1003.64
2019-02-07T06:35:35.547Z,1003.64
2019-02-07T06:36:35.557Z,1003.68
2019-02-07T06:37:35.550Z,1003.68
2019-02-07T06:38:35.577Z,1003.69
2019-02-07T06:39:35.514Z,1003.69
2019-02-07T06:40:35.487Z,1003.62
2019-02-07T06:41:35.487Z,1003.64
2019-02-07T06:42:35.492Z,1003.62
2019-02-07T06:43:35.477Z,1003.63
2019-02-07T06:44:35.420Z,1003.64
2019-02-07T06:45:35.417Z,1003.65
2019-02-07T06:46:35.434Z,1003.65
2019-02-07T06:47:35.436Z,1003.66
2019-02-07T06:48:35.469Z,1003.64
2019-02-07T06:49:35.476Z,1003.62
2019-02-07T06:50:35.360Z,1003.59
2019-02-07T06:51:35.490Z,1003.60
2019-02-07T06:52:35.383Z,1003.62
2019-02-07T06:53:35.303Z,1003.66
2019-02-07T06:54:35.296Z,1003.63
2019-02-07T06:55:35.307Z,1003.64
2019-02-07T06:56:35.295Z,1003.66
2019-02-07T06:57:35.278Z,1003.65
2019-02-07T06:58:35.284Z,1003.63
2019-02-07T06:59:35.227Z,1003.60
2019-02-07T07:00:35.235Z,1003.61
2019-02-07T07:01:35.216Z,1003.60
2019-02-07T07:02:35.212Z,1003.64
2019-02-07T07:03:35.214Z,1003.66
2019-02-07T07:04:35.177Z,1003.65
2019-02-07T07:05:35.273Z,1003.67
2019-02-07T07:06:35.192Z,1003.68
2019-02-07T07:07:35.156Z,1003.66
2019-02-07T07:08:35.119Z,1003.67
2019-02-07T07:09:35.109Z,1003.66
2019-02-07T07:10:35.081Z,1003.66
2019-02-07T07:11:35.094Z,1003.64
2019-02-07T07:12:35.067Z,1003.64
2019-02-07T07:13:35.094Z,1003.64
2019-02-07T07:14:35.045Z,1003.63
2019-02-07T07:15:35.038Z,1003.59
2019-02-07T07:16:35.054Z,1003.52
2019-02-07T07:17:35.028Z,1003.51
2019-02-07T07:18:35.044Z,1003.48
2019-02-07T07:19:35.049Z,1003.47
2019-02-07T07:20:34.983Z,1003.41
2019-02-07T07:21:34.948Z,1003.38
2019-02-07T07:22:34.948Z,1003.34
2019-02-07T07:23:34.920Z,1003.31
2019-02-07T07:24:34.901Z,1003.28
2019-02-07T07:25:34.913Z,1003.26
2019-02-07T07:26:34.886Z,1003.23
2019-02-07T07:27:34.904Z,1003.23
2019-02-07T07:28:34.906Z,1003.25
2019-02-07T07:29:34.967Z,1003.23
2019-02-07T07:30:34.855Z,1003.20
2019-02-07T07:31:34.856Z,1003.16
2019-02-07T07:32:34.822Z,1003.11
2019-02-07T07:33:34.817Z,1003.10
2019-02-07T07:34:34.784Z,1003.10
2019-02-07T07:35:34.768Z,1003.09
2019-02-07T07:36:34.769Z,1003.09
2019-02-07T07:37:34.760Z,1003.03
2019-02-07T07:38:34.722Z,1003.11
2019-02-07T07:39:34.716Z,1003.11
2019-02-07T07:40:34.715Z,1003.09
2019-02-07T07:41:34.700Z,1003.03
2019-02-07T07:42:34.744Z,1002.99
2019-02-07T07:43:34.688Z,1002.99
2019-02-07T07:44:34.690Z,1002.97
2019-02-07T07:45:34.643Z,1002.99
2019-02-07T07:46:34.662Z,1003.02
2019-02-07T07:47:36.256Z,1002.91
2019-02-07T07:48:34.649Z,1002.90
2019-02-07T07:49:34.599Z,1002.89
2019-02-07T07:50:34.572Z,1002.90
2019-02-07T07:51:34.608Z,1002.87
2019-02-07T07:52:34.587Z,1002.91
2019-02-07T07:53:34.596Z,1002.91
2019-02-07T07:54:34.570Z,1002.91
2019-02-07T07:55:34.540Z,1002.90
2019-02-07T07:56:34.510Z,1002.85
2019-02-07T07:57:34.513Z,1002.84
2019-02-07T07:58:34.522Z,1002.82
2019-02-07T07:59:34.502Z,1002.86
2019-02-07T08:00:34.492Z,1002.87
2019-02-07T08:01:34.439Z,1002.83
2019-02-07T08:02:34.424Z,1002.84
2019-02-07T08:03:34.452Z,1002.88
2019-02-07T08:04:34.457Z,1002.92
2019-02-07T08:05:34.465Z,1002.91
2019-02-07T08:06:34.482Z,1002.93
2019-02-07T08:07:34.383Z,1002.92
2019-02-07T08:08:34.375Z,1002.90
2019-02-07T08:09:34.333Z,1002.87
2019-02-07T08:10:34.334Z,1002.88
2019-02-07T08:11:34.322Z,1002.91
2019-02-07T08:12:34.341Z,1002.94
2019-02-07T08:13:34.313Z,1002.88
2019-02-07T08:14:34.314Z,1002.87
2019-02-07T08:15:34.307Z,1002.87
2019-02-07T08:16:34.289Z,1002.87
2019-02-07T08:17:34.235Z,1002.84
2019-02-07T08:18:34.253Z,1002.86
2019-02-07T08:19:34.203Z,1002.85
2019-02-07T08:20:34.212Z,1002.84
2019-02-07T08:21:34.206Z,1002.85
2019-02-07T08:22:34.175Z,1002.87
2019-02-07T08:23:34.181Z,1002.85
2019-02-07T08:24:34.173Z,1002.86
2019-02-07T08:25:34.132Z,1002.84
2019-02-07T08:26:34.142Z,1002.86
2019-02-07T08:27:34.095Z,1002.84
2019-02-07T08:28:34.097Z,1002.82
2019-02-07T08:29:34.097Z,1002.84
2019-02-07T08:30:36.439Z,1002.86
2019-02-07T08:31:34.053Z,1002.91
2019-02-07T08:32:34.080Z,1002.94
2019-02-07T08:33:34.071Z,1002.92
2019-02-07T08:34:34.033Z,1002.87
2019-02-07T08:35:34.088Z,1002.88
2019-02-07T08:36:34.046Z,1002.91
2019-02-07T08:37:34.022Z,1002.93
2019-02-07T08:38:34.016Z,1002.92
2019-02-07T08:39:33.966Z,1002.99
2019-02-07T08:40:33.938Z,1002.93
2019-02-07T08:41:33.951Z,1002.86
2019-02-07T08:42:33.915Z,1002.84
2019-02-07T08:43:33.920Z,1002.79
2019-02-07T08:44:33.912Z,1002.82
2019-02-07T08:45:33.901Z,1002.76
2019-02-07T08:46:33.930Z,1002.77
2019-02-07T08:47:33.950Z,1002.81
2019-02-07T08:48:33.833Z,1002.81
2019-02-07T08:49:33.840Z,1002.75
2019-02-07T08:50:33.804Z,1002.77
2019-02-07T08:51:33.815Z,1002.76
2019-02-07T08:52:33.778Z,1002.74
2019-02-07T08:53:33.808Z,1002.71
2019-02-07T08:54:33.794Z,1002.72
2019-02-07T08:55:35.099Z,1002.72
2019-02-07T08:56:33.744Z,1002.73
2019-02-07T08:57:33.713Z,1002.74
2019-02-07T08:58:33.725Z,1002.77
2019-02-07T08:59:33.702Z,1002.75
2019-02-07T09:00:33.671Z,1002.70
2019-02-07T09:01:33.735Z,1002.71
2019-02-07T09:02:33.673Z,1002.77
2019-02-07T09:03:33.636Z,1002.69
2019-02-07T09:04:33.652Z,1002.66
2019-02-07T09:05:33.660Z,1002.62
2019-02-07T09:06:33.637Z,1002.65
2019-02-07T09:07:33.588Z,1002.62
2019-02-07T09:08:33.579Z,1002.66
2019-02-07T09:09:33.589Z,1002.61
2019-02-07T09:10:33.602Z,1002.60
2019-02-07T09:11:33.625Z,1002.61
2019-02-07T09:12:33.566Z,1002.58
2019-02-07T09:13:33.515Z,1002.57
2019-02-07T09:14:33.513Z,1002.57
2019-02-07T09:15:33.509Z,1002.55
2019-02-07T09:16:33.505Z,1002.56
2019-02-07T09:17:33.466Z,1002.55
2019-02-07T09:18:33.506Z,1002.54
2019-02-07T09:19:33.436Z,1002.51
2019-02-07T09:20:33.490Z,1002.56
2019-02-07T09:21:33.466Z,1002.51
2019-02-07T09:22:33.409Z,1002.58
2019-02-07T09:23:33.441Z,1002.61
2019-02-07T09:24:33.379Z,1002.63
2019-02-07T09:25:34.524Z,1002.64
2019-02-07T09:26:33.398Z,1002.63
2019-02-07T09:27:33.369Z,1002.62
2019-02-07T09:28:33.339Z,1002.62
2019-02-07T09:29:33.388Z,1002.62
2019-02-07T09:30:33.319Z,1002.51
2019-02-07T09:31:33.286Z,1002.49
2019-02-07T09:32:33.311Z,1002.45
2019-02-07T09:33:33.295Z,1002.43
2019-02-07T09:34:33.261Z,1002.42
2019-02-07T09:35:33.254Z,1002.42
2019-02-07T09:36:33.316Z,1002.54
2019-02-07T09:37:33.255Z,1002.52
2019-02-07T09:38:33.201Z,1002.51
2019-02-07T09:39:33.188Z,1002.54
2019-02-07T09:40:33.178Z,1002.59
2019-02-07T09:41:33.178Z,1002.59
2019-02-07T09:42:33.230Z,1002.63
2019-02-07T09:43:42.003Z,1002.65
2019-02-07T09:45:38.177Z,1002.70
2019-02-07T09:46:37.688Z,1002.72
2019-02-07T09:47:37.619Z,1002.70
2019-02-07T09:48:37.622Z,1002.71
2019-02-07T09:49:37.577Z,1002.76
2019-02-07T09:50:37.557Z,1002.84
2019-02-07T09:51:37.544Z,1002.82
2019-02-07T09:52:37.543Z,1002.79
2019-02-07T09:53:37.530Z,1002.81
2019-02-07T09:54:37.499Z,1002.81
2019-02-07T09:55:37.501Z,1002.80
2019-02-07T09:56:37.474Z,1002.77
2019-02-07T09:57:37.478Z,1002.71
2019-02-07T09:58:37.476Z,1002.67
2019-02-07T09:59:37.492Z,1002.71
2019-02-07T10:00:37.415Z,1002.69
2019-02-07T10:01:37.407Z,1002.71
2019-02-07T10:02:37.411Z,1002.73
2019-02-07T10:03:37.419Z,1002.73
2019-02-07T10:04:37.380Z,1002.76
2019-02-07T10:05:37.350Z,1002.77
2019-02-07T10:06:37.342Z,1002.76
2019-02-07T10:07:37.396Z,1002.78
2019-02-07T10:08:37.343Z,1002.73
2019-02-07T10:09:37.334Z,1002.71
2019-02-07T10:10:37.299Z,1002.77
2019-02-07T10:11:37.288Z,1002.68
2019-02-07T10:12:37.268Z,1002.68
2019-02-07T10:13:37.270Z,1002.69
2019-02-07T10:14:37.308Z,1002.72
2019-02-07T10:15:37.238Z,1002.74
2019-02-07T10:16:37.293Z,1002.76
2019-02-07T10:17:37.215Z,1002.70
2019-02-07T10:18:37.208Z,1002.73
2019-02-07T10:19:37.222Z,1002.74
2019-02-07T10:20:37.518Z,1002.73
2019-02-07T10:21:37.159Z,1002.74
2019-02-07T10:22:37.154Z,1002.79
2019-02-07T10:23:37.162Z,1002.75
2019-02-07T10:24:37.157Z,1002.73
2019-02-07T10:25:37.166Z,1002.72
2019-02-07T10:26:37.122Z,1002.76
2019-02-07T10:27:37.084Z,1002.80
2019-02-07T10:28:37.086Z,1002.75
2019-02-07T10:29:37.079Z,1002.80
2019-02-07T10:30:37.118Z,1002.82
2019-02-07T10:31:37.061Z,1002.73
2019-02-07T10:32:37.040Z,1002.71
2019-02-07T10:33:37.027Z,1002.81
2019-02-07T10:34:37.031Z,1002.87
2019-02-07T10:35:37.032Z,1002.81
2019-02-07T10:36:37.025Z,1002.75
2019-02-07T10:37:37.020Z,1002.77
2019-02-07T10:38:36.969Z,1002.86
2019-02-07T10:39:37.004Z,1002.76
2019-02-07T10:40:36.933Z,1002.86
2019-02-07T10:41:36.978Z,1002.90
2019-02-07T10:42:36.942Z,1002.88
2019-02-07T10:43:36.969Z,1002.82
2019-02-07T10:44:46.306Z,1002.79
2019-02-07T10:46:43.349Z,1002.77
2019-02-07T10:47:50.431Z,1002.60
2019-02-07T10:49:35.173Z,1002.62
2019-02-07T10:50:35.425Z,1002.61
2019-02-07T10:51:35.021Z,1002.53
2019-02-07T10:52:34.885Z,1002.48
2019-02-07T10:53:34.912Z,1002.47
2019-02-07T10:54:34.895Z,1002.50
2019-02-07T10:55:34.872Z,1002.50
2019-02-07T10:56:34.947Z,1002.49
2019-02-07T10:57:34.879Z,1002.45
2019-02-07T10:58:34.814Z,1002.45
2019-02-07T10:59:34.841Z,1002.48
2019-02-07T11:00:34.806Z,1002.52
2019-02-07T11:01:34.799Z,1002.50
2019-02-07T11:02:34.767Z,1002.51
2019-02-07T11:03:34.758Z,1002.54
2019-02-07T11:04:34.802Z,1002.53
2019-02-07T11:05:34.742Z,1002.54
2019-02-07T11:06:34.739Z,1002.47
2019-02-07T11:07:34.748Z,1002.54
2019-02-07T11:08:34.719Z,1002.51
2019-02-07T11:09:34.704Z,1002.48
2019-02-07T11:10:34.704Z,1002.44
2019-02-07T11:11:34.697Z,1002.41
2019-02-07T11:12:34.662Z,1002.40
2019-02-07T11:13:34.680Z,1002.34
2019-02-07T11:14:34.709Z,1002.30
2019-02-07T11:15:34.697Z,1002.28
2019-02-07T11:16:34.614Z,1002.30
2019-02-07T11:17:34.619Z,1002.30
2019-02-07T11:18:34.703Z,1002.32
2019-02-07T11:19:34.601Z,1002.31
2019-02-07T11:20:34.609Z,1002.25
2019-02-07T11:21:34.585Z,1002.35
2019-02-07T11:22:34.536Z,1002.37
2019-02-07T11:23:34.561Z,1002.37
2019-02-07T11:24:34.525Z,1002.38
2019-02-07T11:25:34.541Z,1002.37
2019-02-07T11:26:34.522Z,1002.45
2019-02-07T11:27:34.509Z,1002.44
2019-02-07T11:28:34.487Z,1002.44
2019-02-07T11:29:34.487Z,1002.38
2019-02-07T11:30:34.453Z,1002.40
2019-02-07T11:31:34.436Z,1002.39
2019-02-07T11:32:34.435Z,1002.33
2019-02-07T11:33:34.486Z,1002.35
2019-02-07T11:34:34.404Z,1002.31
2019-02-07T11:35:34.400Z,1002.35
2019-02-07T11:36:34.412Z,1002.34
2019-02-07T11:37:34.396Z,1002.33
2019-02-07T11:38:34.384Z,1002.37
2019-02-07T11:39:34.381Z,1002.31
2019-02-07T11:40:34.338Z,1002.38
2019-02-07T11:41:34.361Z,1002.38
2019-02-07T11:42:34.311Z,1002.38
2019-02-07T11:43:34.385Z,1002.43
2019-02-07T11:44:34.292Z,1002.43
2019-02-07T11:45:34.387Z,1002.44
2019-02-07T11:46:37.305Z,1002.46
2019-02-07T11:47:34.351Z,1002.41
2019-02-07T11:48:34.269Z,1002.44
2019-02-07T11:49:34.262Z,1002.44
2019-02-07T11:50:34.306Z,1002.40
2019-02-07T11:51:34.379Z,1002.38
2019-02-07T11:52:34.205Z,1002.33
2019-02-07T11:53:34.190Z,1002.29
2019-02-07T11:54:34.254Z,1002.24
2019-02-07T11:55:34.232Z,1002.20
2019-02-07T11:56:34.236Z,1002.22
2019-02-07T11:57:34.201Z,1002.22
2019-02-07T11:58:34.162Z,1002.27
2019-02-07T11:59:34.147Z,1002.18
2019-02-07T12:00:34.121Z,1002.14
2019-02-07T12:01:34.138Z,1002.20
2019-02-07T12:02:34.142Z,1002.19
2019-02-07T12:03:34.144Z,1002.20
2019-02-07T12:04:34.078Z,1002.16
2019-02-07T12:05:34.068Z,1002.19
2019-02-07T12:06:34.110Z,1002.19
2019-02-07T12:07:34.072Z,1002.11
2019-02-07T12:08:34.049Z,1002.10
2019-02-07T12:09:34.078Z,1002.13
2019-02-07T12:10:34.008Z,1002.12
2019-02-07T12:11:34.090Z,1002.12
2019-02-07T12:12:34.012Z,1002.10
2019-02-07T12:13:33.993Z,1002.05
2019-02-07T12:14:34.007Z,1002.13
2019-02-07T12:15:33.969Z,1002.10
2019-02-07T12:16:33.978Z,1002.09
2019-02-07T12:17:33.955Z,1002.11
2019-02-07T12:18:33.958Z,1002.12
2019-02-07T12:19:33.967Z,1002.08
2019-02-07T12:20:33.896Z,1002.06
2019-02-07T12:21:33.973Z,1002.06
2019-02-07T12:22:33.883Z,1002.06
2019-02-07T12:23:33.865Z,1002.09
2019-02-07T12:24:33.876Z,1002.10
2019-02-07T12:25:33.897Z,1002.07